createdAt,value
2023-05-05T00:00:00.561Z,4.3
2023-05-05T00:01:01.024Z,4.3
2023-05-05T00:02:00.592Z,4.3
2023-05-05T00:03:00.612Z,4.3
2023-05-05T00:04:00.673Z,4.3
2023-05-05T00:05:00.522Z,4.3
2023-05-05T00:06:00.651Z,4.3
2023-05-05T00:07:00.821Z,4.6
2023-05-05T00:08:00.558Z,4.6
2023-05-05T00:09:00.504Z,4.6
2023-05-05T00:10:00.557Z,4.6
2023-05-05T00:11:00.536Z,4.6
2023-05-05T00:12:00.542Z,4.6
2023-05-05T00:13:00.584Z,4.6
2023-05-05T00:14:00.548Z,4.6
2023-05-05T00:15:00.538Z,4.6
2023-05-05T00:16:00.573Z,4.6
2023-05-05T00:17:00.710Z,4.8
2023-05-05T00:18:00.601Z,4.8
2023-05-05T00:19:00.556Z,4.8
2023-05-05T00:20:00.560Z,4.8
2023-05-05T00:21:00.596Z,4.8
2023-05-05T00:22:00.907Z,4.8
2023-05-05T00:23:00.705Z,4.8
2023-05-05T00:24:00.537Z,4.8
2023-05-05T00:25:00.563Z,4.8
2023-05-05T00:26:00.543Z,4.8
2023-05-05T00:27:00.578Z,4.4
2023-05-05T00:28:00.696Z,4.4
2023-05-05T00:29:00.575Z,4.4
2023-05-05T00:30:00.562Z,4.4
2023-05-05T00:31:00.589Z,4.4
2023-05-05T00:32:00.528Z,4.4
2023-05-05T00:33:00.663Z,4.4
2023-05-05T00:34:00.560Z,4.4
2023-05-05T00:35:00.807Z,4.4
2023-05-05T00:36:00.551Z,4.4
2023-05-05T00:37:00.609Z,4.8
2023-05-05T00:38:00.585Z,4.8
2023-05-05T00:39:00.632Z,4.8
2023-05-05T00:40:00.576Z,4.8
2023-05-05T00:41:00.587Z,4.8
2023-05-05T00:42:00.551Z,4.8
2023-05-05T00:43:00.585Z,4.8
2023-05-05T00:44:00.619Z,4.8
2023-05-05T00:45:00.566Z,4.8
2023-05-05T00:46:02.817Z,4.8
2023-05-05T00:47:00.596Z,4.3
2023-05-05T00:48:00.823Z,4.3
2023-05-05T00:49:00.608Z,4.3
2023-05-05T00:50:02.029Z,4.3
2023-05-05T00:51:00.615Z,4.3
2023-05-05T00:52:00.993Z,4.3
2023-05-05T00:53:03.361Z,4.3
2023-05-05T00:54:00.636Z,4.3
2023-05-05T00:55:01.101Z,4.3
2023-05-05T00:56:00.826Z,4.3
2023-05-05T00:57:01.221Z,4.2
2023-05-05T00:58:01.174Z,4.2
2023-05-05T00:59:01.361Z,4.2
2023-05-05T01:00:01.429Z,4.2
2023-05-05T01:01:00.675Z,4.2
2023-05-05T01:02:00.690Z,4.2
2023-05-05T01:03:00.746Z,4.2
2023-05-05T01:04:00.587Z,4.2
2023-05-05T01:05:01.258Z,4.2
2023-05-05T01:06:10.503Z,4.2
2023-05-05T01:07:10.427Z,5.0
2023-05-05T01:08:10.429Z,5.0
2023-05-05T01:09:01.610Z,5.0
2023-05-05T01:10:18.319Z,5.0
2023-05-05T01:11:05.692Z,5.0
2023-05-05T01:12:10.435Z,5.0
2023-05-05T01:13:00.642Z,5.0
2023-05-05T01:14:08.611Z,5.0
2023-05-05T01:15:01.585Z,5.0
2023-05-05T01:16:05.564Z,5.0
2023-05-05T01:17:06.695Z,4.5
2023-05-05T01:18:07.970Z,4.5
2023-05-05T01:19:10.455Z,4.5
2023-05-05T01:20:08.363Z,4.5
2023-05-05T01:21:00.537Z,4.5
2023-05-05T01:22:02.448Z,4.5
2023-05-05T01:23:04.038Z,4.5
2023-05-05T01:24:10.421Z,4.5
2023-05-05T01:25:01.581Z,4.5
2023-05-05T01:26:01.549Z,4.5
2023-05-05T01:27:10.428Z,5.9
2023-05-05T01:28:03.861Z,5.9
2023-05-05T01:29:01.579Z,5.9
2023-05-05T01:30:00.530Z,5.9
2023-05-05T01:31:03.919Z,5.9
2023-05-05T01:32:02.468Z,5.9
2023-05-05T01:33:02.973Z,5.9
2023-05-05T01:34:03.247Z,5.9
2023-05-05T01:35:01.804Z,5.9
2023-05-05T01:36:04.489Z,5.9
2023-05-05T01:37:03.881Z,5.7
2023-05-05T01:38:07.898Z,5.7
2023-05-05T01:39:01.625Z,5.7
2023-05-05T01:40:03.597Z,5.7
2023-05-05T01:41:01.700Z,5.7
2023-05-05T01:42:03.656Z,5.7
2023-05-05T01:43:01.313Z,5.7
2023-05-05T01:44:01.846Z,5.7
2023-05-05T01:45:02.365Z,5.7
2023-05-05T01:46:01.412Z,5.7
2023-05-05T01:47:02.326Z,5.7
2023-05-05T01:48:01.076Z,5.4
2023-05-05T01:49:00.791Z,5.4
2023-05-05T01:50:01.008Z,5.4
2023-05-05T01:51:01.985Z,5.4
2023-05-05T01:52:01.277Z,5.4
2023-05-05T01:53:01.550Z,5.4
2023-05-05T01:54:04.557Z,5.4
2023-05-05T01:55:01.931Z,5.4
2023-05-05T01:56:01.569Z,5.4
2023-05-05T01:57:01.939Z,5.4
2023-05-05T01:58:01.443Z,5.1
2023-05-05T01:59:01.167Z,5.1
2023-05-05T02:00:01.474Z,5.1
2023-05-05T02:01:00.883Z,5.1
2023-05-05T02:02:01.263Z,5.1
2023-05-05T02:03:02.870Z,5.1
2023-05-05T02:04:00.985Z,5.1
2023-05-05T02:05:01.706Z,5.1
2023-05-05T02:06:01.514Z,5.1
2023-05-05T02:07:01.190Z,5.1
2023-05-05T02:08:01.457Z,5.1
2023-05-05T02:09:01.401Z,5.1
2023-05-05T02:10:01.364Z,5.1
2023-05-05T02:11:00.774Z,5.1
2023-05-05T02:12:00.955Z,5.1
2023-05-05T02:13:00.931Z,5.1
2023-05-05T02:14:00.988Z,5.1
2023-05-05T02:15:01.513Z,5.1
2023-05-05T02:16:02.005Z,5.1
2023-05-05T02:17:00.849Z,5.1
2023-05-05T02:18:01.148Z,5.1
2023-05-05T02:19:01.438Z,5.1
2023-05-05T02:20:01.131Z,5.1
2023-05-05T02:21:00.862Z,5.1
2023-05-05T02:22:00.770Z,5.1
2023-05-05T02:23:00.717Z,5.1
2023-05-05T02:24:01.085Z,5.1
2023-05-05T02:25:00.698Z,5.1
2023-05-05T02:26:03.844Z,5.1
2023-05-05T02:27:02.581Z,5.1
2023-05-05T02:28:01.580Z,5.1
2023-05-05T02:29:10.403Z,5.1
2023-05-05T02:30:06.624Z,5.1
2023-05-05T02:31:01.691Z,5.1
2023-05-05T02:32:02.713Z,5.1
2023-05-05T02:33:05.029Z,5.1
2023-05-05T02:34:02.464Z,5.1
2023-05-05T02:35:06.070Z,5.1
2023-05-05T02:36:07.394Z,5.1
2023-05-05T02:37:02.622Z,5.1
2023-05-05T02:38:01.960Z,5.7
2023-05-05T02:39:02.186Z,5.7
2023-05-05T02:40:01.563Z,5.7
2023-05-05T02:41:01.386Z,5.7
2023-05-05T02:42:01.263Z,5.7
2023-05-05T02:43:03.731Z,5.7
2023-05-05T02:44:02.216Z,5.7
2023-05-05T02:45:03.462Z,5.7
2023-05-05T02:46:00.584Z,5.7
2023-05-05T02:47:01.776Z,5.7
2023-05-05T02:48:04.011Z,5.5
2023-05-05T02:49:00.565Z,5.5
2023-05-05T02:50:00.659Z,5.5
2023-05-05T02:51:00.677Z,5.5
2023-05-05T02:52:00.617Z,5.5
2023-05-05T02:53:00.856Z,5.5
2023-05-05T02:54:00.852Z,5.5
2023-05-05T02:55:01.967Z,5.5
2023-05-05T02:56:03.887Z,5.5
2023-05-05T02:57:00.676Z,5.5
2023-05-05T02:58:10.419Z,4.7
2023-05-05T02:59:10.408Z,4.7
2023-05-05T03:00:10.452Z,4.7
2023-05-05T03:01:07.591Z,4.7
2023-05-05T03:02:10.435Z,4.7
2023-05-05T03:03:00.633Z,4.7
2023-05-05T03:04:00.560Z,4.7
2023-05-05T03:05:03.237Z,4.7
2023-05-05T03:06:06.295Z,4.7
2023-05-05T03:07:05.886Z,4.7
2023-05-05T03:08:02.968Z,5.9
2023-05-05T03:09:11.569Z,5.9
2023-05-05T03:10:06.324Z,5.9
2023-05-05T03:11:05.046Z,5.9
2023-05-05T03:12:02.961Z,5.9
2023-05-05T03:13:01.673Z,5.9
2023-05-05T03:14:06.000Z,5.9
2023-05-05T03:15:01.180Z,5.9
2023-05-05T03:16:01.257Z,5.9
2023-05-05T03:17:01.398Z,5.9
2023-05-05T03:18:01.481Z,4.8
2023-05-05T03:19:01.504Z,4.8
2023-05-05T03:20:03.604Z,4.8
2023-05-05T03:21:00.938Z,4.8
2023-05-05T03:22:02.347Z,4.8
2023-05-05T03:23:01.503Z,4.8
2023-05-05T03:24:09.943Z,4.8
2023-05-05T03:25:00.557Z,4.8
2023-05-05T03:26:00.723Z,4.8
2023-05-05T03:27:00.558Z,4.8
2023-05-05T03:28:00.544Z,5.1
2023-05-05T03:29:00.548Z,5.1
2023-05-05T03:30:00.697Z,5.1
2023-05-05T03:31:01.475Z,5.1
2023-05-05T03:32:00.657Z,5.1
2023-05-05T03:33:00.629Z,5.1
2023-05-05T03:34:00.602Z,5.1
2023-05-05T03:35:00.632Z,5.1
2023-05-05T03:36:00.577Z,5.1
2023-05-05T03:37:00.606Z,5.1
2023-05-05T03:38:00.551Z,6.2
2023-05-05T03:39:00.571Z,6.2
2023-05-05T03:40:00.618Z,6.2
2023-05-05T03:41:01.137Z,6.2
2023-05-05T03:42:00.552Z,6.2
2023-05-05T03:43:00.564Z,6.2
2023-05-05T03:44:00.554Z,6.2
2023-05-05T03:45:00.572Z,6.2
2023-05-05T03:46:00.694Z,6.2
2023-05-05T03:47:00.572Z,6.2
2023-05-05T03:48:00.546Z,6.1
2023-05-05T03:49:00.562Z,6.1
2023-05-05T03:50:00.622Z,6.1
2023-05-05T03:51:00.599Z,6.1
2023-05-05T03:52:00.561Z,6.1
2023-05-05T03:53:00.590Z,6.1
2023-05-05T03:54:00.535Z,6.1
2023-05-05T03:55:00.541Z,6.1
2023-05-05T03:56:00.547Z,6.1
2023-05-05T03:57:00.600Z,6.1
2023-05-05T03:58:00.556Z,6.9
2023-05-05T03:59:00.554Z,6.9
2023-05-05T04:00:00.673Z,6.9
2023-05-05T04:02:00.611Z,6.9
2023-05-05T04:03:00.796Z,6.9
2023-05-05T04:04:00.989Z,6.9
2023-05-05T04:05:00.597Z,6.9
2023-05-05T04:06:00.576Z,6.9
2023-05-05T04:07:00.551Z,6.9
2023-05-05T04:08:00.684Z,5.7
2023-05-05T04:09:00.596Z,5.7
2023-05-05T04:10:00.551Z,5.7
2023-05-05T04:11:00.623Z,5.7
2023-05-05T04:12:00.534Z,5.7
2023-05-05T04:13:00.652Z,5.7
2023-05-05T04:14:00.545Z,5.7
2023-05-05T04:15:00.581Z,5.7
2023-05-05T04:16:00.640Z,5.7
2023-05-05T04:17:00.564Z,5.7
2023-05-05T04:18:00.600Z,7.2
2023-05-05T04:19:00.610Z,7.2
2023-05-05T04:20:00.636Z,7.2
2023-05-05T04:21:00.599Z,7.2
2023-05-05T04:22:00.562Z,7.2
2023-05-05T04:23:00.566Z,7.2
2023-05-05T04:24:00.578Z,7.2
2023-05-05T04:25:00.581Z,7.2
2023-05-05T04:26:00.579Z,7.2
2023-05-05T04:27:00.553Z,7.2
2023-05-05T04:28:00.591Z,6.5
2023-05-05T04:29:00.533Z,6.5
2023-05-05T04:30:00.604Z,6.5
2023-05-05T04:31:00.542Z,6.5
2023-05-05T04:32:00.547Z,6.5
2023-05-05T04:33:00.618Z,6.5
2023-05-05T04:34:00.532Z,6.5
2023-05-05T04:35:00.639Z,6.5
2023-05-05T04:36:00.534Z,6.5
2023-05-05T04:37:00.685Z,6.5
2023-05-05T04:38:00.524Z,6.7
2023-05-05T04:39:00.642Z,6.7
2023-05-05T04:40:00.585Z,6.7
2023-05-05T04:41:03.990Z,6.7
2023-05-05T04:42:00.546Z,6.7
2023-05-05T04:43:00.530Z,6.7
2023-05-05T04:44:00.523Z,6.7
2023-05-05T04:45:00.571Z,6.7
2023-05-05T04:46:00.554Z,6.7
2023-05-05T04:47:00.739Z,6.7
2023-05-05T04:48:00.633Z,7.2
2023-05-05T04:49:00.563Z,7.2
2023-05-05T04:50:00.599Z,7.2
2023-05-05T04:51:04.474Z,7.2
2023-05-05T04:52:00.651Z,7.2
2023-05-05T04:53:00.538Z,7.2
2023-05-05T04:54:00.544Z,7.2
2023-05-05T04:55:01.388Z,7.2
2023-05-05T04:56:00.725Z,7.2
2023-05-05T04:57:00.601Z,7.2
2023-05-05T04:58:00.523Z,7.6
2023-05-05T04:59:00.573Z,7.6
2023-05-05T05:00:00.704Z,7.6
2023-05-05T05:01:00.554Z,7.6
2023-05-05T05:02:00.584Z,7.6
2023-05-05T05:03:00.765Z,7.6
2023-05-05T05:04:00.661Z,7.6
2023-05-05T05:05:00.545Z,7.6
2023-05-05T05:06:00.578Z,7.6
2023-05-05T05:07:00.608Z,7.6
2023-05-05T05:08:00.596Z,7.0
2023-05-05T05:09:00.615Z,7.0
2023-05-05T05:10:00.649Z,7.0
2023-05-05T05:11:00.588Z,7.0
2023-05-05T05:12:00.563Z,7.0
2023-05-05T05:13:00.798Z,7.0
2023-05-05T05:14:00.592Z,7.0
2023-05-05T05:15:00.557Z,7.0
2023-05-05T05:16:00.823Z,7.0
2023-05-05T05:17:00.542Z,7.0
2023-05-05T05:18:00.605Z,8.5
2023-05-05T05:19:01.841Z,8.5
2023-05-05T05:20:00.602Z,8.5
2023-05-05T05:21:00.561Z,8.5
2023-05-05T05:22:00.533Z,8.5
2023-05-05T05:23:00.582Z,8.5
2023-05-05T05:24:00.569Z,8.5
2023-05-05T05:25:00.629Z,8.5
2023-05-05T05:26:00.599Z,8.5
2023-05-05T05:27:00.634Z,8.5
2023-05-05T05:28:09.580Z,9.0
2023-05-05T05:29:00.546Z,9.0
2023-05-05T05:30:00.707Z,9.0
2023-05-05T05:31:00.531Z,9.0
2023-05-05T05:32:00.728Z,9.0
2023-05-05T05:33:00.546Z,9.0
2023-05-05T05:34:00.550Z,9.0
2023-05-05T05:35:00.536Z,9.0
2023-05-05T05:36:00.586Z,9.0
2023-05-05T05:37:00.615Z,9.0
2023-05-05T05:38:00.530Z,6.9
2023-05-05T05:39:00.545Z,6.9
2023-05-05T05:40:00.607Z,6.9
2023-05-05T05:41:04.001Z,6.9
2023-05-05T05:42:00.583Z,6.9
2023-05-05T05:43:00.610Z,6.9
2023-05-05T05:44:00.534Z,6.9
2023-05-05T05:45:00.565Z,6.9
2023-05-05T05:46:00.589Z,6.9
2023-05-05T05:47:00.590Z,6.9
2023-05-05T05:48:00.592Z,8.2
2023-05-05T05:49:00.655Z,8.2
2023-05-05T05:50:00.588Z,8.2
2023-05-05T05:51:00.550Z,8.2
2023-05-05T05:52:00.525Z,8.2
2023-05-05T05:53:00.591Z,8.2
2023-05-05T05:54:00.555Z,8.2
2023-05-05T05:55:00.842Z,8.2
2023-05-05T05:56:00.607Z,8.2
2023-05-05T05:57:00.747Z,8.2
2023-05-05T05:58:00.611Z,7.8
2023-05-05T05:59:00.540Z,7.8
2023-05-05T06:00:02.117Z,7.8
2023-05-05T06:01:00.554Z,7.8
2023-05-05T06:02:00.632Z,7.8
2023-05-05T06:03:00.751Z,7.8
2023-05-05T06:04:00.628Z,7.8
2023-05-05T06:05:00.551Z,7.8
2023-05-05T06:06:00.558Z,7.8
2023-05-05T06:07:00.581Z,7.8
2023-05-05T06:08:00.584Z,7.4
2023-05-05T06:09:00.623Z,7.4
2023-05-05T06:10:10.866Z,7.4
2023-05-05T06:11:00.656Z,7.4
2023-05-05T06:12:00.561Z,7.4
2023-05-05T06:13:00.654Z,7.4
2023-05-05T06:14:00.568Z,7.4
2023-05-05T06:15:00.543Z,7.4
2023-05-05T06:16:00.587Z,7.4
2023-05-05T06:17:00.554Z,7.4
2023-05-05T06:18:00.601Z,7.2
2023-05-05T06:19:00.552Z,7.2
2023-05-05T06:20:00.744Z,7.2
2023-05-05T06:21:00.572Z,7.2
2023-05-05T06:22:00.560Z,7.2
2023-05-05T06:23:00.584Z,7.2
2023-05-05T06:24:00.585Z,7.2
2023-05-05T06:25:00.569Z,7.2
2023-05-05T06:26:00.572Z,7.2
2023-05-05T06:27:00.609Z,7.2
2023-05-05T06:28:00.564Z,7.0
2023-05-05T06:29:00.562Z,7.0
2023-05-05T06:30:00.544Z,7.0
2023-05-05T06:31:00.696Z,7.0
2023-05-05T06:32:00.548Z,7.0
2023-05-05T06:33:00.640Z,7.0
2023-05-05T06:34:00.751Z,7.0
2023-05-05T06:35:00.546Z,7.0
2023-05-05T06:36:00.524Z,7.0
2023-05-05T06:37:00.581Z,7.0
2023-05-05T06:38:00.553Z,5.5
2023-05-05T06:39:00.561Z,5.5
2023-05-05T06:40:00.587Z,5.5
2023-05-05T06:41:00.541Z,5.5
2023-05-05T06:42:00.856Z,5.5
2023-05-05T06:43:00.588Z,5.5
2023-05-05T06:44:00.514Z,5.5
2023-05-05T06:45:00.593Z,5.5
2023-05-05T06:46:00.539Z,5.5
2023-05-05T06:47:00.685Z,5.5
2023-05-05T06:48:00.588Z,4.8
2023-05-05T06:49:00.538Z,4.8
2023-05-05T06:50:00.593Z,4.8
2023-05-05T06:57:00.653Z,4.8
2023-05-05T06:58:00.626Z,3.3
2023-05-05T06:59:00.589Z,3.3
2023-05-05T07:00:02.159Z,3.3
2023-05-05T07:01:00.625Z,3.3
2023-05-05T07:02:00.622Z,3.3
2023-05-05T07:03:00.641Z,3.3
2023-05-05T07:04:00.701Z,3.3
2023-05-05T07:05:00.582Z,3.3
2023-05-05T07:06:00.535Z,3.3
2023-05-05T07:07:00.584Z,3.3
2023-05-05T07:08:00.669Z,3.1
2023-05-05T07:09:00.585Z,3.1
2023-05-05T07:10:00.768Z,3.1
2023-05-05T07:11:00.565Z,3.1
2023-05-05T07:12:00.536Z,3.1
2023-05-05T07:13:00.566Z,3.1
2023-05-05T07:14:00.573Z,3.1
2023-05-05T07:15:04.764Z,3.1
2023-05-05T07:16:00.875Z,3.1
2023-05-05T07:17:00.620Z,3.1
2023-05-05T07:18:00.659Z,2.6
2023-05-05T07:19:00.633Z,2.6
2023-05-05T07:20:00.617Z,2.6
2023-05-05T07:21:00.576Z,2.6
2023-05-05T07:22:00.578Z,2.6
2023-05-05T07:23:00.589Z,2.6
2023-05-05T07:24:01.670Z,2.6
2023-05-05T07:25:01.210Z,2.6
2023-05-05T07:26:00.591Z,2.6
2023-05-05T07:27:00.542Z,2.6
2023-05-05T07:28:00.725Z,2.0
2023-05-05T07:29:01.455Z,2.0
2023-05-05T07:30:00.640Z,2.0
2023-05-05T07:31:00.602Z,2.0
2023-05-05T07:32:00.614Z,2.0
2023-05-05T07:33:00.636Z,2.0
2023-05-05T07:34:00.559Z,2.0
2023-05-05T07:35:00.652Z,2.0
2023-05-05T07:36:00.653Z,2.0
2023-05-05T07:37:00.676Z,2.0
2023-05-05T07:38:00.574Z,2.3
2023-05-05T07:39:00.594Z,2.3
2023-05-05T07:40:00.594Z,2.3
2023-05-05T07:41:00.604Z,2.3
2023-05-05T07:42:00.570Z,2.3
2023-05-05T07:43:00.583Z,2.3
2023-05-05T07:44:00.573Z,2.3
2023-05-05T07:45:00.583Z,2.3
2023-05-05T07:46:00.578Z,2.3
2023-05-05T07:47:00.555Z,2.3
2023-05-05T07:48:00.784Z,2.7
2023-05-05T07:49:00.600Z,2.7
2023-05-05T07:50:00.600Z,2.7
2023-05-05T07:51:00.642Z,2.7
2023-05-05T07:52:00.644Z,2.7
2023-05-05T07:53:10.719Z,2.7
2023-05-05T07:54:00.543Z,2.7
2023-05-05T07:55:00.562Z,2.7
2023-05-05T07:56:00.567Z,2.7
2023-05-05T07:57:00.606Z,2.7
2023-05-05T07:58:00.551Z,2.4
2023-05-05T07:59:00.584Z,2.4
2023-05-05T08:00:00.585Z,2.4
2023-05-05T08:01:00.580Z,2.4
2023-05-05T08:02:00.571Z,2.4
2023-05-05T08:03:00.768Z,2.4
2023-05-05T08:04:00.641Z,2.4
2023-05-05T08:05:00.527Z,2.4
2023-05-05T08:06:05.397Z,2.4
2023-05-05T08:07:00.518Z,2.4
2023-05-05T08:08:00.638Z,2.1
2023-05-05T08:09:00.588Z,2.1
2023-05-05T08:10:00.592Z,2.1
2023-05-05T08:11:00.580Z,2.1
2023-05-05T08:12:00.578Z,2.1
2023-05-05T08:13:00.638Z,2.1
2023-05-05T08:14:00.622Z,2.1
2023-05-05T08:15:00.595Z,2.1
2023-05-05T08:16:00.696Z,2.1
2023-05-05T08:17:00.581Z,2.1
2023-05-05T08:18:00.699Z,2.4
2023-05-05T08:19:01.119Z,2.4
2023-05-05T08:20:00.578Z,2.4
2023-05-05T08:21:00.560Z,2.4
2023-05-05T08:22:01.477Z,2.4
2023-05-05T08:23:00.540Z,2.4
2023-05-05T08:24:00.569Z,2.4
2023-05-05T08:25:00.730Z,2.4
2023-05-05T08:26:00.934Z,2.4
2023-05-05T08:27:00.564Z,2.4
2023-05-05T08:28:00.536Z,2.0
2023-05-05T08:29:00.693Z,2.0
2023-05-05T08:30:01.761Z,2.0
2023-05-05T08:31:00.677Z,2.0
2023-05-05T08:32:00.656Z,2.0
2023-05-05T08:33:00.742Z,2.0
2023-05-05T08:34:00.599Z,2.0
2023-05-05T08:35:01.203Z,2.0
2023-05-05T08:36:00.600Z,2.0
2023-05-05T08:37:00.578Z,2.0
2023-05-05T08:38:00.594Z,2.1
2023-05-05T08:39:00.575Z,2.1
2023-05-05T08:40:00.590Z,2.1
2023-05-05T08:41:00.574Z,2.1
2023-05-05T08:42:00.584Z,2.1
2023-05-05T08:43:00.668Z,2.1
2023-05-05T08:44:00.609Z,2.1
2023-05-05T08:45:00.650Z,2.1
2023-05-05T08:46:00.899Z,2.1
2023-05-05T08:47:01.142Z,2.1
2023-05-05T08:48:01.765Z,2.1
2023-05-05T08:49:00.870Z,2.1
2023-05-05T08:50:01.060Z,2.1
2023-05-05T08:51:05.368Z,2.1
2023-05-05T08:52:03.858Z,2.1
2023-05-05T08:53:03.981Z,2.1
2023-05-05T08:54:01.844Z,2.1
2023-05-05T08:55:04.892Z,2.1
2023-05-05T08:56:01.714Z,2.1
2023-05-05T08:57:01.059Z,2.1
2023-05-05T08:58:00.853Z,2.0
2023-05-05T08:59:01.475Z,2.0
2023-05-05T09:00:01.271Z,2.0
2023-05-05T09:01:00.796Z,2.0
2023-05-05T09:02:02.870Z,2.0
2023-05-05T09:03:01.308Z,2.0
2023-05-05T09:04:02.162Z,2.0
2023-05-05T09:05:00.824Z,2.0
2023-05-05T09:06:00.657Z,2.0
2023-05-05T09:07:00.757Z,2.0
2023-05-05T09:08:00.821Z,2.3
2023-05-05T09:09:00.716Z,2.3
2023-05-05T09:10:03.064Z,2.3
2023-05-05T09:11:00.955Z,2.3
2023-05-05T09:12:01.098Z,2.3
2023-05-05T09:13:00.775Z,2.3
2023-05-05T09:14:00.597Z,2.3
2023-05-05T09:15:00.619Z,2.3
2023-05-05T09:16:00.566Z,2.3
2023-05-05T09:17:01.897Z,2.3
2023-05-05T09:18:00.881Z,2.4
2023-05-05T09:19:01.387Z,2.4
2023-05-05T09:20:00.650Z,2.4
2023-05-05T09:21:10.436Z,2.4
2023-05-05T09:22:00.578Z,2.4
2023-05-05T09:23:10.470Z,2.4
2023-05-05T09:24:07.785Z,2.4
2023-05-05T09:25:00.563Z,2.4
2023-05-05T09:26:03.082Z,2.4
2023-05-05T09:27:10.435Z,2.4
2023-05-05T09:28:07.433Z,2.4
2023-05-05T09:29:01.317Z,2.4
2023-05-05T09:30:00.637Z,2.4
2023-05-05T09:31:10.463Z,2.4
2023-05-05T09:32:01.494Z,2.4
2023-05-05T09:33:01.209Z,2.4
2023-05-05T09:34:00.671Z,2.4
2023-05-05T09:35:00.567Z,2.4
2023-05-05T09:36:00.628Z,2.4
2023-05-05T09:37:00.604Z,2.4
2023-05-05T09:38:10.116Z,2.1
2023-05-05T09:39:04.244Z,2.1
2023-05-05T09:40:00.597Z,2.1
2023-05-05T09:41:00.582Z,2.1
2023-05-05T09:42:01.332Z,2.1
2023-05-05T09:43:00.859Z,2.1
2023-05-05T09:44:00.582Z,2.1
2023-05-05T09:45:00.609Z,2.1
2023-05-05T09:46:07.894Z,2.1
2023-05-05T09:47:00.681Z,2.1
2023-05-05T09:48:01.021Z,2.3
2023-05-05T09:49:10.465Z,2.3
2023-05-05T09:50:00.886Z,2.3
2023-05-05T09:51:00.617Z,2.3
2023-05-05T09:52:10.411Z,2.3
2023-05-05T09:53:01.232Z,2.3
2023-05-05T09:54:00.630Z,2.3
2023-05-05T09:55:00.584Z,2.3
2023-05-05T09:56:00.617Z,2.3
2023-05-05T09:57:00.569Z,2.3
2023-05-05T09:58:10.494Z,2.1
2023-05-05T09:59:08.323Z,2.1
2023-05-05T10:00:01.346Z,2.1
2023-05-05T10:01:00.545Z,2.1
2023-05-05T10:02:10.456Z,2.1
2023-05-05T10:03:01.609Z,2.1
2023-05-05T10:04:00.551Z,2.1
2023-05-05T10:05:05.912Z,2.1
2023-05-05T10:06:00.554Z,2.1
2023-05-05T10:07:00.588Z,2.1
2023-05-05T10:08:10.425Z,2.3
2023-05-05T10:09:00.567Z,2.3
2023-05-05T10:10:01.729Z,2.3
2023-05-05T10:11:01.685Z,2.3
2023-05-05T10:12:00.615Z,2.3
2023-05-05T10:13:00.954Z,2.3
2023-05-05T10:14:03.775Z,2.3
2023-05-05T10:15:00.878Z,2.3
2023-05-05T10:16:02.122Z,2.3
2023-05-05T10:17:00.577Z,2.3
2023-05-05T10:18:08.153Z,2.3
2023-05-05T10:19:01.168Z,2.3
2023-05-05T10:20:00.703Z,2.3
2023-05-05T10:21:01.501Z,2.3
2023-05-05T10:22:02.381Z,2.3
2023-05-05T10:23:01.267Z,2.3
2023-05-05T10:24:05.870Z,2.3
2023-05-05T10:25:08.021Z,2.3
2023-05-05T10:26:01.683Z,2.3
2023-05-05T10:27:01.108Z,2.3
2023-05-05T10:28:04.995Z,2.1
2023-05-05T10:29:01.389Z,2.1
2023-05-05T10:30:04.777Z,2.1
2023-05-05T10:31:02.043Z,2.1
2023-05-05T10:32:16.275Z,2.1
2023-05-05T10:33:30.099Z,2.1
2023-05-05T10:34:02.752Z,2.1
2023-05-05T10:35:02.097Z,2.1
2023-05-05T10:36:01.476Z,2.1
2023-05-05T10:37:00.615Z,2.1
2023-05-05T10:38:02.571Z,2.1
2023-05-05T10:39:01.944Z,1.9
2023-05-05T10:40:01.069Z,1.9
2023-05-05T10:41:00.780Z,1.9
2023-05-05T10:42:00.692Z,1.9
2023-05-05T10:43:00.652Z,1.9
2023-05-05T10:44:04.296Z,1.9
2023-05-05T10:45:00.709Z,1.9
2023-05-05T10:46:01.105Z,1.9
2023-05-05T10:47:00.894Z,1.9
2023-05-05T10:48:03.289Z,1.9
2023-05-05T10:49:00.719Z,1.9
2023-05-05T10:50:01.577Z,1.9
2023-05-05T10:51:10.460Z,1.9
2023-05-05T10:52:08.713Z,1.9
2023-05-05T10:53:10.448Z,1.9
2023-05-05T10:54:10.542Z,1.9
2023-05-05T10:55:00.579Z,1.9
2023-05-05T10:56:10.460Z,1.9
2023-05-05T10:57:00.735Z,1.9
2023-05-05T10:58:00.669Z,1.9
2023-05-05T10:59:01.042Z,2.3
2023-05-05T11:00:00.671Z,2.3
2023-05-05T11:01:00.910Z,2.3
2023-05-05T11:02:00.600Z,2.3
2023-05-05T11:03:10.538Z,2.3
2023-05-05T11:04:10.450Z,2.3
2023-05-05T11:05:08.938Z,2.3
2023-05-05T11:06:03.962Z,2.3
2023-05-05T11:07:09.121Z,2.3
2023-05-05T11:08:10.452Z,2.1
2023-05-05T11:09:10.454Z,2.1
2023-05-05T11:10:01.980Z,2.1
2023-05-05T11:11:00.977Z,2.1
2023-05-05T11:12:01.794Z,2.1
2023-05-05T11:13:00.590Z,2.1
2023-05-05T11:14:10.444Z,2.1
2023-05-05T11:15:10.469Z,2.1
2023-05-05T11:16:00.669Z,2.1
2023-05-05T11:17:00.820Z,2.1
2023-05-05T11:18:01.926Z,2.1
2023-05-05T11:19:00.667Z,2.0
2023-05-05T11:20:00.577Z,2.0
2023-05-05T11:21:00.553Z,2.0
2023-05-05T11:22:00.965Z,2.0
2023-05-05T11:23:01.611Z,2.0
2023-05-05T11:24:10.432Z,2.0
2023-05-05T11:25:00.584Z,2.0
2023-05-05T11:26:00.653Z,2.0
2023-05-05T11:27:01.203Z,2.0
2023-05-05T11:28:10.496Z,2.0
2023-05-05T11:29:01.831Z,1.8
2023-05-05T11:30:04.118Z,1.8
2023-05-05T11:31:00.613Z,1.8
2023-05-05T11:32:10.458Z,1.8
2023-05-05T11:33:10.437Z,1.8
2023-05-05T11:34:10.429Z,1.8
2023-05-05T11:35:00.846Z,1.8
2023-05-05T11:36:01.292Z,1.8
2023-05-05T11:37:01.387Z,1.8
2023-05-05T11:38:02.655Z,1.8
2023-05-05T11:39:00.587Z,1.8
2023-05-05T11:40:10.662Z,1.8
2023-05-05T11:41:04.751Z,1.8
2023-05-05T11:42:02.932Z,1.8
2023-05-05T11:43:04.363Z,1.8
2023-05-05T11:44:08.469Z,1.8
2023-05-05T11:45:01.220Z,1.8
2023-05-05T11:46:10.504Z,1.8
2023-05-05T11:47:03.933Z,1.8
2023-05-05T11:48:10.494Z,1.8
2023-05-05T11:49:00.591Z,1.8
2023-05-05T11:50:10.531Z,1.8
2023-05-05T11:51:00.824Z,1.8
2023-05-05T11:52:01.330Z,1.8
2023-05-05T11:53:00.571Z,1.8
2023-05-05T11:54:00.668Z,1.8
2023-05-05T11:55:00.649Z,1.8
2023-05-05T11:56:08.210Z,1.8
2023-05-05T11:57:00.960Z,1.8
2023-05-05T11:58:00.553Z,1.8
2023-05-05T11:59:08.584Z,1.9
2023-05-05T12:00:03.762Z,1.9
2023-05-05T12:01:03.810Z,1.9
2023-05-05T12:02:00.812Z,1.9
2023-05-05T12:03:00.835Z,1.9
2023-05-05T12:04:00.998Z,1.9
2023-05-05T12:05:00.876Z,1.9
2023-05-05T12:06:00.980Z,1.9
2023-05-05T12:07:00.570Z,1.9
2023-05-05T12:08:00.818Z,1.9
2023-05-05T12:09:00.576Z,1.7
2023-05-05T12:10:00.558Z,1.7
2023-05-05T12:11:02.416Z,1.7
2023-05-05T12:12:00.606Z,1.7
2023-05-05T12:13:00.703Z,1.7
2023-05-05T12:14:07.906Z,1.7
2023-05-05T12:15:00.629Z,1.7
2023-05-05T12:16:08.452Z,1.7
2023-05-05T12:17:09.127Z,1.7
2023-05-05T12:18:02.599Z,1.7
2023-05-05T12:19:02.343Z,1.8
2023-05-05T12:20:00.655Z,1.8
2023-05-05T12:21:00.680Z,1.8
2023-05-05T12:22:02.118Z,1.8
2023-05-05T12:23:02.248Z,1.8
2023-05-05T12:24:00.786Z,1.8
2023-05-05T12:25:02.248Z,1.8
2023-05-05T12:26:00.573Z,1.8
2023-05-05T12:27:08.353Z,1.8
2023-05-05T12:28:00.586Z,1.8
2023-05-05T12:29:00.598Z,1.9
2023-05-05T12:30:10.594Z,1.9
2023-05-05T12:31:00.582Z,1.9
2023-05-05T12:32:00.761Z,1.9
2023-05-05T12:33:01.373Z,1.9
2023-05-05T12:34:01.312Z,1.9
2023-05-05T12:35:01.406Z,1.9
2023-05-05T12:36:00.602Z,1.9
2023-05-05T12:37:00.666Z,1.9
2023-05-05T12:38:00.752Z,1.9
2023-05-05T12:39:00.982Z,2.1
2023-05-05T12:40:00.610Z,2.1
2023-05-05T12:41:01.463Z,2.1
2023-05-05T12:42:01.251Z,2.1
2023-05-05T12:43:00.572Z,2.1
2023-05-05T12:44:01.120Z,2.1
2023-05-05T12:45:00.621Z,2.1
2023-05-05T12:46:00.822Z,2.1
2023-05-05T12:47:00.588Z,2.1
2023-05-05T12:48:00.695Z,2.1
2023-05-05T12:49:01.442Z,2.0
2023-05-05T12:50:00.647Z,2.0
2023-05-05T12:51:10.453Z,2.0
2023-05-05T12:52:00.602Z,2.0
2023-05-05T12:53:00.550Z,2.0
2023-05-05T12:54:01.617Z,2.0
2023-05-05T12:55:00.556Z,2.0
2023-05-05T12:56:00.574Z,2.0
2023-05-05T12:57:09.663Z,2.0
2023-05-05T12:58:01.026Z,2.0
2023-05-05T12:59:01.215Z,2.1
2023-05-05T13:00:10.662Z,2.1
2023-05-05T13:01:08.228Z,2.1
2023-05-05T13:02:00.693Z,2.1
2023-05-05T13:03:00.686Z,2.1
2023-05-05T13:04:10.497Z,2.1
2023-05-05T13:05:00.568Z,2.1
2023-05-05T13:06:00.610Z,2.1
2023-05-05T13:07:08.833Z,2.1
2023-05-05T13:08:00.668Z,2.1
2023-05-05T13:09:00.724Z,2.0
2023-05-05T13:10:08.606Z,2.0
2023-05-05T13:11:00.609Z,2.0
2023-05-05T13:12:00.876Z,2.0
2023-05-05T13:13:01.138Z,2.0
2023-05-05T13:14:00.556Z,2.0
2023-05-05T13:15:00.564Z,2.0
2023-05-05T13:16:00.752Z,2.0
2023-05-05T13:17:00.619Z,2.0
2023-05-05T13:18:00.666Z,2.0
2023-05-05T13:19:00.627Z,1.9
2023-05-05T13:20:00.613Z,1.9
2023-05-05T13:21:00.593Z,1.9
2023-05-05T13:22:00.600Z,1.9
2023-05-05T13:23:00.569Z,1.9
2023-05-05T13:24:18.356Z,1.9
2023-05-05T13:25:00.638Z,1.9
2023-05-05T13:26:00.608Z,1.9
2023-05-05T13:27:00.862Z,1.9
2023-05-05T13:28:00.573Z,1.9
2023-05-05T13:29:00.576Z,2.0
2023-05-05T13:30:00.629Z,2.0
2023-05-05T13:31:00.599Z,2.0
2023-05-05T13:32:00.764Z,2.0
2023-05-05T13:33:01.269Z,2.0
2023-05-05T13:34:00.587Z,2.0
2023-05-05T13:35:00.661Z,2.0
2023-05-05T13:36:01.050Z,2.0
2023-05-05T13:37:00.625Z,2.0
2023-05-05T13:38:00.576Z,2.0
2023-05-05T13:39:01.063Z,1.8
2023-05-05T13:40:00.607Z,1.8
2023-05-05T13:41:00.707Z,1.8
2023-05-05T13:42:00.553Z,1.8
2023-05-05T13:43:00.639Z,1.8
2023-05-05T13:44:00.571Z,1.8
2023-05-05T13:45:00.571Z,1.8
2023-05-05T13:46:16.060Z,1.8
2023-05-05T13:47:00.672Z,1.8
2023-05-05T13:48:00.622Z,1.8
2023-05-05T13:49:00.596Z,2.2
2023-05-05T13:50:00.622Z,2.2
2023-05-05T13:51:00.597Z,2.2
2023-05-05T13:52:00.773Z,2.2
2023-05-05T13:53:00.591Z,2.2